Time;durP1;ratioP1;P1;durP2;ratioP2;P2;SDS_P1;SDS_P2;PMS_P1;PMS_P2;Temp;Humidity;BMP_temperature;BMP_pressure;BME280_temperature;BME280_humidity;BME280_pressure;Samples;Min_cycle;Max_cycle;Signal;HPM_P1;HPM_P2
2023/04/09 00:01:22;;;;;;;;;21.00;19.00;27.80;34.00;;;;;;110153;1251;45142;-62
2023/04/09 00:03:50;;;;;;;;;24.00;20.00;27.80;34.00;;;;;;110237;1254;56290;-63
2023/04/09 00:06:17;;;;;;;;;27.00;22.00;27.80;33.70;;;;;;110164;1254;53322;-63
2023/04/09 00:08:44;;;;;;;;;23.00;20.50;27.80;33.70;;;;;;110120;1250;49774;-62
2023/04/09 00:11:11;;;;;;;;;21.50;19.00;27.90;33.80;;;;;;110108;1254;49427;-61
2023/04/09 00:13:37;;;;;;;;;22.00;18.00;27.90;33.80;;;;;;110122;1254;45233;-61
2023/04/09 00:16:05;;;;;;;;;24.00;20.00;27.90;33.80;;;;;;110216;1250;56072;-61
2023/04/09 00:18:31;;;;;;;;;20.00;17.00;27.90;33.80;;;;;;110128;1250;53669;-61
2023/04/09 00:20:58;;;;;;;;;21.00;19.50;28.00;33.80;;;;;;110119;1250;50236;-62
2023/04/09 00:23:25;;;;;;;;;20.00;18.00;28.00;33.80;;;;;;110105;1250;50263;-62
2023/04/09 00:25:52;;;;;;;;;21.00;20.00;28.10;33.80;;;;;;110191;1251;46421;-62
2023/04/09 00:28:19;;;;;;;;;24.50;21.50;28.10;33.80;;;;;;110214;1250;56448;-61
2023/04/09 00:30:46;;;;;;;;;27.00;23.50;28.20;33.80;;;;;;110198;1250;53853;-60
2023/04/09 00:33:13;;;;;;;;;21.00;19.00;28.20;33.80;;;;;;110059;1254;49748;-61
2023/04/09 00:35:40;;;;;;;;;24.00;19.00;28.30;33.80;;;;;;110202;1250;49804;-62
2023/04/09 00:38:07;;;;;;;;;17.00;16.00;28.30;33.80;;;;;;110253;1254;45821;-62
2023/04/09 00:40:34;;;;;;;;;19.00;18.00;28.40;33.70;;;;;;110340;1254;55992;-61
2023/04/09 00:43:02;;;;;;;;;18.00;17.00;28.40;33.90;;;;;;110213;1250;54197;-61
2023/04/09 00:45:29;;;;;;;;;19.50;18.50;28.40;34.20;;;;;;110095;1253;49127;-61
2023/04/09 00:47:56;;;;;;;;;23.00;21.00;28.50;33.70;;;;;;110132;1254;50474;-61
2023/04/09 00:50:23;;;;;;;;;20.00;18.00;28.50;33.60;;;;;;110149;1254;45114;-61
2023/04/09 00:52:50;;;;;;;;;26.00;23.00;28.50;33.20;;;;;;110178;1254;56782;-60
2023/04/09 00:55:17;;;;;;;;;19.00;18.00;28.60;33.50;;;;;;110007;1252;53833;-61
2023/04/09 00:57:45;;;;;;;;;20.00;17.00;28.60;33.50;;;;;;109936;1250;49454;-62
2023/04/09 01:00:13;;;;;;;;;19.50;17.00;28.60;33.40;;;;;;110133;1250;49143;-62
2023/04/09 01:02:40;;;;;;;;;26.50;22.50;28.60;33.40;;;;;;110109;1254;46198;-62
2023/04/09 01:05:08;;;;;;;;;24.50;22.00;28.60;33.40;;;;;;110198;1254;55816;-62
2023/04/09 01:08:03;;;;;;;;;22.00;19.00;28.60;33.30;;;;;;110218;1250;54047;-61
2023/04/09 01:10:41;;;;;;;;;17.00;16.50;28.60;33.30;;;;;;109944;1256;50850;-61
2023/04/09 01:13:15;;;;;;;;;23.50;19.50;28.70;33.40;;;;;;110118;1254;49651;-62
2023/04/09 01:15:47;;;;;;;;;22.00;18.00;28.70;33.40;;;;;;110186;1254;46684;-61
2023/04/09 01:18:35;;;;;;;;;21.50;19.50;28.60;33.20;;;;;;110149;1250;56029;-61
2023/04/09 01:21:10;;;;;;;;;23.00;20.50;28.60;33.10;;;;;;110278;1253;54528;-61
2023/04/09 01:23:57;;;;;;;;;22.00;20.00;28.60;33.10;;;;;;110123;1254;50192;-61
2023/04/09 01:26:46;;;;;;;;;19.50;18.50;28.60;33.00;;;;;;110181;1254;50065;-62
2023/04/09 01:29:15;;;;;;;;;20.50;18.00;28.50;32.90;;;;;;110237;1253;45936;-61
2023/04/09 01:31:43;;;;;;;;;22.75;21.75;28.50;32.90;;;;;;110081;1255;56258;-60
2023/04/09 01:34:10;;;;;;;;;20.50;19.50;28.40;32.90;;;;;;109963;1253;53960;-61
2023/04/09 01:36:38;;;;;;;;;20.00;19.00;28.40;32.90;;;;;;110209;1250;49484;-61
2023/04/09 01:39:06;;;;;;;;;19.00;17.50;28.30;32.90;;;;;;110069;1253;49855;-61
2023/04/09 01:41:34;;;;;;;;;17.67;17.00;28.30;33.10;;;;;;110108;1251;46671;-61
2023/04/09 01:44:02;;;;;;;;;19.00;18.00;28.20;32.80;;;;;;109953;1256;56267;-61
2023/04/09 01:46:30;;;;;;;;;21.50;19.00;28.20;32.90;;;;;;110213;1254;53659;-60
2023/04/09 01:48:58;;;;;;;;;21.00;19.50;28.20;33.00;;;;;;110066;1251;50209;-61
2023/04/09 01:51:26;;;;;;;;;21.00;18.00;28.20;33.00;;;;;;110156;1250;50658;-61
2023/04/09 01:53:53;;;;;;;;;18.33;16.00;28.20;33.00;;;;;;110186;1251;45613;-61
2023/04/09 01:56:20;;;;;;;;;20.00;19.00;28.20;33.00;;;;;;110071;1253;55753;-61
2023/04/09 01:58:47;;;;;;;;;19.00;18.00;28.20;33.00;;;;;;110118;1254;54650;-61
2023/04/09 02:01:30;;;;;;;;;21.00;18.00;28.20;32.90;;;;;;110075;1254;49063;-62
2023/04/09 02:04:02;;;;;;;;;17.75;16.50;28.20;33.00;;;;;;110087;1254;49824;-61
2023/04/09 02:06:55;;;;;;;;;20.00;19.00;28.20;32.90;;;;;;110076;1253;45711;-61
2023/04/09 02:09:23;;;;;;;;;21.00;17.50;28.30;33.00;;;;;;110147;1250;56479;-62
2023/04/09 02:11:51;;;;;;;;;19.00;16.67;28.30;33.00;;;;;;110294;1250;54786;-61
2023/04/09 02:14:20;;;;;;;;;20.00;19.00;28.30;32.90;;;;;;110240;1250;49916;-60
2023/04/09 02:16:46;;;;;;;;;19.00;18.00;28.40;33.00;;;;;;110262;1250;50026;-61
2023/04/09 02:19:14;;;;;;;;;20.00;17.00;28.40;33.00;;;;;;110118;1251;46723;-61
2023/04/09 02:21:41;;;;;;;;;20.00;17.00;28.50;33.00;;;;;;110172;1250;55922;-61
2023/04/09 02:24:08;;;;;;;;;18.00;16.50;28.50;33.00;;;;;;110196;1250;54784;-60
2023/04/09 02:26:35;;;;;;;;;19.00;17.00;28.50;33.00;;;;;;110575;1250;49293;-61
2023/04/09 02:29:02;;;;;;;;;21.00;17.00;28.50;33.00;;;;;;110190;1250;49346;-61
2023/04/09 02:31:29;;;;;;;;;20.00;18.50;28.60;33.20;;;;;;110136;1254;46002;-62
2023/04/09 02:33:56;;;;;;;;;18.00;17.00;28.70;33.00;;;;;;110098;1254;56361;-61
2023/04/09 02:36:23;;;;;;;;;16.50;15.00;28.70;33.00;;;;;;110128;1250;53839;-61
2023/04/09 02:38:50;;;;;;;;;20.00;17.00;28.70;32.90;;;;;;110115;1254;49590;-61
2023/04/09 02:41:17;;;;;;;;;20.00;19.00;28.80;32.90;;;;;;110147;1254;49107;-61
2023/04/09 02:43:44;;;;;;;;;21.00;20.00;28.80;33.10;;;;;;110104;1250;45427;-61
2023/04/09 02:46:11;;;;;;;;;19.67;15.33;28.80;32.80;;;;;;110150;1254;55002;-61
2023/04/09 02:48:38;;;;;;;;;20.00;16.00;28.80;32.80;;;;;;110130;1251;54348;-61
2023/04/09 02:51:07;;;;;;;;;23.00;20.00;28.90;32.80;;;;;;110072;1254;50583;-62
2023/04/09 02:53:34;;;;;;;;;19.00;16.00;28.90;32.80;;;;;;110143;1254;49658;-61
2023/04/09 02:56:00;;;;;;;;;20.50;18.00;28.90;32.70;;;;;;110168;1250;46039;-61
2023/04/09 02:58:27;;;;;;;;;17.50;16.00;28.90;32.70;;;;;;110142;1254;57086;-61
2023/04/09 03:00:54;;;;;;;;;21.33;20.00;28.90;32.60;;;;;;110253;1254;53761;-60
2023/04/09 03:03:21;;;;;;;;;21.00;18.00;28.90;32.60;;;;;;110130;1250;49866;-61
2023/04/09 03:05:48;;;;;;;;;20.00;19.00;28.90;32.60;;;;;;110168;1249;48999;-61
2023/04/09 03:08:15;;;;;;;;;16.00;14.50;28.90;32.80;;;;;;110124;1250;45911;-61
2023/04/09 03:10:42;;;;;;;;;21.00;17.00;28.90;32.50;;;;;;110094;1252;55706;-61
2023/04/09 03:13:09;;;;;;;;;20.33;19.33;28.80;32.40;;;;;;110220;1250;54926;-61
2023/04/09 03:15:36;;;;;;;;;22.00;19.00;28.80;32.40;;;;;;110213;1254;49856;-61
2023/04/09 03:18:03;;;;;;;;;19.75;18.75;28.80;32.50;;;;;;110122;1254;48865;-60
2023/04/09 03:20:30;;;;;;;;;17.50;16.50;28.70;32.30;;;;;;110114;1250;45740;-61
2023/04/09 03:22:57;;;;;;;;;23.00;22.00;28.70;32.30;;;;;;110290;1250;55376;-61
2023/04/09 03:25:24;;;;;;;;;19.00;17.00;28.70;32.30;;;;;;110153;1250;53970;-61
2023/04/09 03:27:51;;;;;;;;;17.00;16.00;28.60;32.20;;;;;;110121;1250;49383;-62
2023/04/09 03:30:18;;;;;;;;;19.00;18.00;28.50;32.20;;;;;;110303;1250;49800;-62
2023/04/09 03:32:45;;;;;;;;;21.50;18.50;28.50;32.20;;;;;;110099;1254;46031;-61
2023/04/09 03:35:12;;;;;;;;;18.50;14.00;28.50;32.80;;;;;;110520;1250;55308;-61
2023/04/09 03:37:39;;;;;;;;;21.00;18.00;28.40;32.30;;;;;;110121;1250;54840;-61
2023/04/09 03:40:07;;;;;;;;;18.00;15.00;28.40;32.10;;;;;;110241;1250;50066;-61
2023/04/09 03:42:35;;;;;;;;;17.50;16.00;28.30;32.00;;;;;;110205;1250;50064;-61
2023/04/09 03:45:03;;;;;;;;;17.75;15.25;28.30;32.00;;;;;;110187;1254;46006;-62
2023/04/09 03:47:31;;;;;;;;;20.00;19.00;28.20;31.90;;;;;;110226;1250;56402;-61
2023/04/09 03:49:58;;;;;;;;;17.00;16.00;28.20;32.10;;;;;;110180;1254;54146;-61
2023/04/09 03:52:25;;;;;;;;;17.00;16.00;28.20;32.60;;;;;;110109;1254;50591;-61
2023/04/09 03:54:52;;;;;;;;;21.00;19.00;28.10;32.10;;;;;;110208;1250;49351;-60
2023/04/09 03:57:19;;;;;;;;;20.00;18.00;28.10;32.40;;;;;;110073;1250;45195;-61
2023/04/09 03:59:46;;;;;;;;;17.00;16.00;28.10;32.20;;;;;;110112;1250;56548;-61
2023/04/09 04:02:14;;;;;;;;;19.00;18.00;28.10;32.20;;;;;;110286;1254;54790;-61
2023/04/09 04:04:41;;;;;;;;;19.00;18.00;28.10;32.30;;;;;;110141;1251;49098;-61
2023/04/09 04:07:08;;;;;;;;;20.00;19.00;28.10;32.20;;;;;;110105;1254;49576;-61
2023/04/09 04:09:37;;;;;;;;;18.50;17.50;28.20;32.30;;;;;;110177;1254;45993;-61
2023/04/09 04:12:04;;;;;;;;;23.50;19.00;28.20;32.30;;;;;;110175;1250;56110;-61
2023/04/09 04:14:31;;;;;;;;;19.00;17.00;28.20;32.30;;;;;;110153;1250;54666;-61
2023/04/09 04:16:58;;;;;;;;;17.00;16.33;28.30;32.30;;;;;;110150;1250;49832;-61
2023/04/09 04:19:25;;;;;;;;;19.67;18.67;28.30;32.30;;;;;;110077;1254;49501;-60
2023/04/09 04:21:52;;;;;;;;;18.00;17.00;28.30;32.30;;;;;;110102;1254;45680;-60
2023/04/09 04:24:18;;;;;;;;;18.67;17.67;28.40;32.90;;;;;;110237;1254;55986;-60
2023/04/09 04:26:45;;;;;;;;;20.00;17.00;28.40;32.30;;;;;;110176;1250;53916;-60
2023/04/09 04:29:12;;;;;;;;;17.00;17.00;28.40;32.30;;;;;;110086;1250;49479;-60
2023/04/09 04:31:39;;;;;;;;;19.00;16.00;28.50;32.90;;;;;;110126;1250;49882;-60
2023/04/09 04:34:06;;;;;;;;;18.75;17.75;28.50;32.30;;;;;;110122;1251;46405;-61
2023/04/09 04:36:33;;;;;;;;;20.50;18.00;28.60;32.30;;;;;;110208;1250;56261;-61
2023/04/09 04:39:00;;;;;;;;;18.33;17.33;28.60;32.30;;;;;;110218;1250;53361;-61
2023/04/09 04:41:28;;;;;;;;;19.50;18.75;28.70;32.30;;;;;;110169;1252;49499;-61
2023/04/09 04:43:56;;;;;;;;;17.00;16.00;28.70;32.20;;;;;;110069;1254;49657;-62
2023/04/09 04:46:23;;;;;;;;;19.00;18.00;28.70;32.20;;;;;;110272;1254;45925;-62
2023/04/09 04:48:50;;;;;;;;;17.00;15.50;28.70;32.10;;;;;;110334;1250;55978;-62
2023/04/09 04:51:17;;;;;;;;;23.00;19.00;28.80;32.10;;;;;;110237;1250;53330;-61
2023/04/09 04:53:44;;;;;;;;;20.00;17.00;28.80;32.10;;;;;;110130;1254;49957;-62
2023/04/09 04:56:14;;;;;;;;;19.33;18.33;28.80;32.00;;;;;;109913;1253;49737;-62
2023/04/09 04:58:42;;;;;;;;;19.50;18.00;28.80;32.00;;;;;;110160;1251;45834;-62
2023/04/09 05:01:09;;;;;;;;;21.00;20.00;28.80;32.00;;;;;;109999;1251;55604;-62
2023/04/09 05:03:36;;;;;;;;;19.50;17.00;28.80;32.00;;;;;;110159;1254;54221;-62
2023/04/09 05:06:03;;;;;;;;;21.50;20.00;28.80;32.00;;;;;;110215;1250;49894;-62
2023/04/09 05:08:30;;;;;;;;;19.00;18.00;28.80;32.00;;;;;;110232;1254;50405;-62
2023/04/09 05:10:57;;;;;;;;;18.00;17.00;28.70;31.80;;;;;;110277;1250;45727;-62
2023/04/09 05:13:24;;;;;;;;;18.50;17.50;28.70;32.10;;;;;;110298;1254;56303;-62
2023/04/09 05:15:51;;;;;;;;;18.00;15.50;28.70;31.90;;;;;;110312;1251;53925;-62
2023/04/09 05:18:18;;;;;;;;;19.00;18.00;28.60;31.90;;;;;;110206;1250;50008;-62
2023/04/09 05:20:45;;;;;;;;;19.00;17.00;28.60;31.80;;;;;;110166;1250;50201;-62
2023/04/09 05:23:12;;;;;;;;;15.00;14.00;28.60;31.80;;;;;;109991;1253;46379;-62
2023/04/09 05:25:39;;;;;;;;;18.50;16.00;28.50;31.90;;;;;;110257;1254;56848;-63
2023/04/09 05:28:06;;;;;;;;;19.75;18.75;28.50;31.90;;;;;;110200;1254;53873;-63
2023/04/09 05:30:33;;;;;;;;;18.50;17.50;28.40;31.80;;;;;;110222;1254;49211;-63
2023/04/09 05:33:00;;;;;;;;;18.00;17.00;28.40;31.80;;;;;;110295;1254;49755;-64
2023/04/09 05:35:27;;;;;;;;;18.50;16.50;28.30;32.20;;;;;;110299;1250;45692;-63
2023/04/09 05:37:54;;;;;;;;;19.50;17.50;28.30;31.80;;;;;;110272;1254;56846;-63
2023/04/09 05:40:21;;;;;;;;;20.00;19.00;28.30;31.80;;;;;;110276;1250;53470;-63
2023/04/09 05:42:48;;;;;;;;;19.00;16.67;28.30;31.90;;;;;;110182;1254;49039;-63
2023/04/09 05:45:15;;;;;;;;;19.00;17.00;28.20;32.30;;;;;;110242;1254;49474;-63
2023/04/09 05:47:42;;;;;;;;;17.50;17.00;28.10;31.60;;;;;;110318;1250;46213;-63
2023/04/09 05:50:10;;;;;;;;;25.00;23.00;28.10;31.60;;;;;;110342;1254;55998;-63
2023/04/09 05:52:37;;;;;;;;;27.00;27.00;28.00;32.50;;;;;;110291;1254;55131;-67
2023/04/09 05:55:05;;;;;;;;;29.00;25.00;27.90;32.90;;;;;;110275;1254;50396;-64
2023/04/09 05:57:32;;;;;;;;;33.00;30.50;27.80;32.70;;;;;;110315;1250;49848;-64
2023/04/09 05:59:59;;;;;;;;;33.67;31.67;27.70;32.70;;;;;;110234;1254;46079;-67
2023/04/09 06:02:27;;;;;;;;;35.00;29.00;27.60;32.50;;;;;;110352;1255;56241;-62
2023/04/09 06:04:54;;;;;;;;;28.00;24.67;27.50;32.40;;;;;;110125;1251;53194;-64
2023/04/09 06:07:21;;;;;;;;;27.00;25.00;27.50;32.70;;;;;;110216;1254;49976;-65
2023/04/09 06:09:48;;;;;;;;;25.50;25.00;27.40;32.80;;;;;;110203;1250;49079;-63
2023/04/09 06:12:15;;;;;;;;;33.50;30.00;27.40;32.70;;;;;;110232;1250;45118;-62
2023/04/09 06:14:42;;;;;;;;;33.00;31.00;27.40;32.80;;;;;;110136;1250;55252;-63
2023/04/09 06:17:09;;;;;;;;;37.50;30.75;27.40;33.00;;;;;;110304;1254;53914;-63
2023/04/09 06:19:36;;;;;;;;;28.25;25.50;27.40;32.70;;;;;;110292;1250;49428;-62
2023/04/09 06:22:03;;;;;;;;;33.00;30.00;27.40;32.60;;;;;;110412;1254;49174;-62
2023/04/09 06:24:31;;;;;;;;;26.00;24.50;27.40;32.60;;;;;;110193;1250;45608;-62
2023/04/09 06:26:58;;;;;;;;;29.67;26.67;27.40;32.60;;;;;;110175;1251;55516;-62
2023/04/09 06:29:26;;;;;;;;;30.67;27.00;27.40;32.60;;;;;;110291;1250;54187;-63
2023/04/09 06:31:53;;;;;;;;;27.00;24.33;27.30;32.50;;;;;;110223;1251;49046;-63
2023/04/09 06:34:20;;;;;;;;;26.67;25.67;27.30;32.80;;;;;;110185;1254;49527;-67
2023/04/09 06:36:47;;;;;;;;;23.50;22.50;27.30;32.50;;;;;;110072;1256;45243;-62
2023/04/09 06:39:14;;;;;;;;;30.33;28.00;27.30;32.70;;;;;;110099;1254;56860;-62
2023/04/09 06:41:41;;;;;;;;;31.00;26.67;27.20;32.40;;;;;;110094;1250;53913;-63
2023/04/09 06:44:08;;;;;;;;;27.00;26.00;27.20;32.40;;;;;;110106;1254;49334;-62
2023/04/09 06:46:35;;;;;;;;;27.00;25.00;27.20;32.60;;;;;;110209;1249;49894;-62
2023/04/09 06:49:02;;;;;;;;;26.00;24.00;27.20;32.30;;;;;;110244;1249;46098;-63
2023/04/09 06:51:29;;;;;;;;;26.33;23.00;27.20;32.30;;;;;;110198;1250;57073;-61
2023/04/09 06:53:56;;;;;;;;;29.50;26.00;27.10;32.20;;;;;;110356;1252;53232;-62
2023/04/09 06:56:23;;;;;;;;;26.00;24.00;27.00;32.20;;;;;;110084;1254;49730;-64
2023/04/09 06:58:50;;;;;;;;;34.50;28.50;27.00;32.50;;;;;;110291;1250;50018;-64
2023/04/09 07:01:17;;;;;;;;;27.00;24.33;27.00;32.20;;;;;;110204;1250;46374;-62
2023/04/09 07:03:44;;;;;;;;;33.50;30.00;27.00;32.10;;;;;;110212;1254;55422;-62
2023/04/09 07:06:11;;;;;;;;;27.33;26.33;26.90;32.10;;;;;;110232;1250;54432;-62
2023/04/09 07:08:38;;;;;;;;;28.50;27.50;26.90;32.20;;;;;;110219;1250;49838;-63
2023/04/09 07:11:05;;;;;;;;;28.00;24.50;26.90;32.20;;;;;;110205;1254;49638;-63
2023/04/09 07:13:32;;;;;;;;;28.00;27.00;26.80;32.20;;;;;;110220;1251;45532;-64
2023/04/09 07:15:59;;;;;;;;;27.00;25.00;26.80;32.20;;;;;;110290;1250;55484;-62
2023/04/09 07:18:26;;;;;;;;;28.50;27.00;26.80;32.30;;;;;;110179;1254;53858;-62
2023/04/09 07:20:54;;;;;;;;;27.00;24.00;26.80;32.30;;;;;;110100;1254;127263;-63
2023/04/09 07:23:21;;;;;;;;;30.00;27.00;26.80;32.20;;;;;;110255;1250;49461;-62
2023/04/09 07:25:48;;;;;;;;;25.00;22.00;26.90;32.20;;;;;;110257;1250;45259;-63
2023/04/09 07:28:15;;;;;;;;;29.00;27.00;26.90;32.20;;;;;;110235;1254;55690;-62
2023/04/09 07:30:42;;;;;;;;;27.00;23.67;27.00;32.20;;;;;;110143;1250;54564;-62
2023/04/09 07:33:10;;;;;;;;;28.00;25.00;27.00;32.20;;;;;;110200;1254;49605;-62
2023/04/09 07:35:37;;;;;;;;;24.50;23.50;27.10;32.20;;;;;;110237;1250;49365;-62
2023/04/09 07:38:04;;;;;;;;;21.00;20.00;27.20;32.30;;;;;;110217;1254;46339;-62
2023/04/09 07:40:33;;;;;;;;;21.00;20.00;27.30;32.30;;;;;;110253;1254;55755;-61
2023/04/09 07:43:00;;;;;;;;;27.00;24.00;27.40;32.30;;;;;;110272;1254;53743;-62
2023/04/09 07:45:27;;;;;;;;;23.00;22.00;27.50;32.50;;;;;;110229;1250;48988;-62
2023/04/09 07:47:54;;;;;;;;;26.75;19.50;27.60;32.40;;;;;;110198;1250;49527;-63
2023/04/09 07:50:21;;;;;;;;;23.00;22.00;27.70;32.30;;;;;;110285;1250;45510;-61
2023/04/09 07:52:48;;;;;;;;;25.00;24.00;27.80;32.50;;;;;;110218;1250;56491;-63
2023/04/09 07:55:15;;;;;;;;;26.00;20.33;27.90;32.30;;;;;;110312;1254;53725;-63
2023/04/09 07:57:44;;;;;;;;;23.00;21.50;28.00;32.20;;;;;;110258;1250;49167;-63
2023/04/09 08:00:11;;;;;;;;;24.00;22.00;28.10;32.40;;;;;;110248;1250;49000;-63
2023/04/09 08:02:38;;;;;;;;;23.00;22.00;28.20;32.10;;;;;;110241;1254;46914;-62
2023/04/09 08:05:06;;;;;;;;;22.00;20.00;28.30;32.10;;;;;;110265;1251;56752;-63
2023/04/09 08:07:33;;;;;;;;;23.50;21.50;28.40;32.10;;;;;;110260;1250;53349;-64
2023/04/09 08:10:00;;;;;;;;;25.50;22.50;28.60;32.30;;;;;;110318;1250;49657;-63
2023/04/09 08:12:27;;;;;;;;;22.00;20.00;28.70;32.10;;;;;;110280;1251;49723;-65
2023/04/09 08:14:54;;;;;;;;;24.00;23.00;28.80;32.10;;;;;;110297;1249;45604;-64
2023/04/09 08:17:22;;;;;;;;;25.00;22.00;28.90;32.10;;;;;;110348;1254;55442;-64
2023/04/09 08:19:49;;;;;;;;;24.00;23.00;29.00;32.00;;;;;;110264;1254;54457;-63
2023/04/09 08:22:16;;;;;;;;;20.00;19.00;29.20;32.20;;;;;;110379;1254;50684;-64
2023/04/09 08:24:42;;;;;;;;;23.67;22.67;29.30;32.00;;;;;;110254;1254;49202;-63
2023/04/09 08:27:09;;;;;;;;;29.00;25.00;29.50;32.00;;;;;;110203;1250;45884;-63
2023/04/09 08:29:39;;;;;;;;;22.00;19.00;29.60;32.20;;;;;;110232;1250;55306;-63
2023/04/09 08:32:06;;;;;;;;;22.00;20.00;29.70;31.90;;;;;;110198;1251;54034;-61
2023/04/09 08:34:33;;;;;;;;;22.00;18.00;29.80;32.40;;;;;;110218;1254;49681;-62
2023/04/09 08:37:01;;;;;;;;;25.00;21.67;29.90;31.80;;;;;;110218;1254;49826;-63
2023/04/09 08:39:28;;;;;;;;;25.00;22.67;30.10;31.80;;;;;;110194;1251;45631;-63
2023/04/09 08:42:00;;;;;;;;;23.50;22.00;30.20;31.70;;;;;;110239;1254;55464;-63
2023/04/09 08:44:28;;;;;;;;;22.50;21.50;30.30;31.90;;;;;;110129;1256;54371;-63
2023/04/09 08:46:55;;;;;;;;;23.00;20.50;30.50;31.70;;;;;;110219;1254;49320;-62
2023/04/09 08:49:22;;;;;;;;;21.00;19.50;30.60;31.90;;;;;;110124;1250;48952;-62
2023/04/09 08:51:49;;;;;;;;;18.50;17.50;30.70;31.80;;;;;;110186;1250;45437;-62
2023/04/09 08:54:18;;;;;;;;;22.00;19.50;30.80;31.50;;;;;;110285;1254;55908;-63
2023/04/09 08:56:46;;;;;;;;;19.33;18.00;31.00;31.50;;;;;;110218;1254;53871;-62
2023/04/09 08:59:19;;;;;;;;;20.00;18.50;31.10;31.70;;;;;;110219;1253;48969;-63
2023/04/09 09:01:52;;;;;;;;;20.50;19.00;31.20;31.40;;;;;;110233;1250;49112;-62
2023/04/09 09:04:19;;;;;;;;;20.33;19.33;31.30;31.40;;;;;;110195;1250;45832;-62
2023/04/09 09:06:46;;;;;;;;;24.00;20.00;31.40;31.30;;;;;;110099;1254;55163;-62
2023/04/09 09:09:15;;;;;;;;;21.00;20.00;31.50;31.30;;;;;;110243;1254;54398;-63
2023/04/09 09:11:44;;;;;;;;;24.00;20.00;31.60;31.40;;;;;;110084;1250;49483;-63
2023/04/09 09:14:15;;;;;;;;;20.00;18.00;31.70;31.40;;;;;;110260;1250;49196;-63
2023/04/09 09:17:06;;;;;;;;;22.00;21.00;31.80;31.10;;;;;;110146;1250;46031;-63
2023/04/09 09:19:34;;;;;;;;;20.00;19.00;31.90;31.10;;;;;;110198;1254;55199;-63
2023/04/09 09:22:05;;;;;;;;;21.00;18.00;32.00;31.00;;;;;;110238;1254;54973;-64
2023/04/09 09:24:33;;;;;;;;;20.50;19.50;32.10;30.90;;;;;;110300;1250;49857;-64
2023/04/09 09:27:01;;;;;;;;;20.00;15.50;32.10;30.80;;;;;;110177;1254;49938;-63
2023/04/09 09:29:28;;;;;;;;;22.00;19.00;32.20;30.80;;;;;;110260;1250;45715;-62
2023/04/09 09:31:55;;;;;;;;;18.00;17.00;32.30;30.80;;;;;;110194;1250;56186;-62
2023/04/09 09:34:23;;;;;;;;;20.00;19.00;32.30;30.70;;;;;;110384;1254;54202;-62
2023/04/09 09:36:50;;;;;;;;;20.00;19.00;32.30;30.90;;;;;;110271;1254;49747;-62
2023/04/09 09:39:17;;;;;;;;;21.50;19.00;32.30;30.60;;;;;;110182;1250;49528;-64
2023/04/09 09:41:45;;;;;;;;;19.00;18.00;32.40;30.60;;;;;;110196;1254;46374;-61
2023/04/09 09:44:31;;;;;;;;;24.00;20.00;32.40;30.60;;;;;;110225;1250;55297;-63
2023/04/09 09:46:58;;;;;;;;;17.00;16.00;32.40;30.60;;;;;;110173;1254;54219;-63
2023/04/09 09:49:25;;;;;;;;;21.50;17.00;32.30;30.50;;;;;;110209;1254;51032;-62
2023/04/09 09:51:56;;;;;;;;;20.50;19.50;32.30;30.40;;;;;;110375;1250;49068;-62
2023/04/09 09:54:24;;;;;;;;;25.00;21.00;32.30;30.40;;;;;;110290;1254;45385;-62
2023/04/09 09:56:54;;;;;;;;;23.00;19.00;32.30;30.60;;;;;;110097;1250;56461;-63
2023/04/09 09:59:29;;;;;;;;;21.00;19.00;32.30;30.40;;;;;;110163;1250;54205;-62
2023/04/09 10:02:04;;;;;;;;;22.50;19.50;32.30;30.40;;;;;;110251;1254;50313;-62
2023/04/09 10:04:34;;;;;;;;;24.00;21.00;32.20;30.30;;;;;;110184;1254;50047;-63
2023/04/09 10:07:04;;;;;;;;;24.00;23.00;32.10;30.30;;;;;;110218;1250;45743;-63
2023/04/09 10:09:37;;;;;;;;;18.00;17.33;32.10;30.30;;;;;;110235;1250;57461;-63
2023/04/09 10:12:06;;;;;;;;;22.00;19.67;32.10;30.30;;;;;;110387;1254;53926;-62
2023/04/09 10:14:34;;;;;;;;;24.00;21.50;32.00;30.50;;;;;;110253;1254;49117;-63
2023/04/09 10:17:02;;;;;;;;;23.00;19.00;31.90;30.30;;;;;;110241;1250;49827;-63
2023/04/09 10:19:37;;;;;;;;;19.00;18.00;31.80;30.30;;;;;;110276;1250;45555;-63
2023/04/09 10:22:14;;;;;;;;;19.00;18.00;31.80;30.30;;;;;;110283;1250;55584;-62
2023/04/09 10:24:41;;;;;;;;;22.50;21.50;31.70;30.30;;;;;;110142;1251;53690;-63
2023/04/09 10:27:10;;;;;;;;;32.00;30.00;31.60;30.60;;;;;;110259;1250;49118;-63
2023/04/09 10:29:47;;;;;;;;;34.33;30.00;31.50;30.70;;;;;;110218;1254;49086;-64
2023/04/09 10:32:20;;;;;;;;;33.50;29.00;31.30;30.80;;;;;;110237;1250;45732;-63
2023/04/09 10:34:49;;;;;;;;;34.00;31.50;31.20;30.90;;;;;;110271;1254;55487;-64
2023/04/09 10:37:24;;;;;;;;;30.00;28.00;31.00;31.20;;;;;;110177;1251;54113;-66
2023/04/09 10:39:52;;;;;;;;;37.00;30.67;30.90;31.40;;;;;;110301;1254;50014;-65
2023/04/09 10:42:28;;;;;;;;;30.00;29.00;30.80;32.50;;;;;;110170;1254;48985;-66
2023/04/09 10:45:06;;;;;;;;;30.00;29.00;30.60;32.10;;;;;;110130;1250;45543;-65
2023/04/09 10:47:36;;;;;;;;;50.50;40.50;30.50;32.00;;;;;;110474;1254;56176;-67
2023/04/09 10:50:24;;;;;;;;;77.67;65.00;30.40;32.10;;;;;;110136;1250;54940;-64
2023/04/09 10:52:53;;;;;;;;;87.50;68.50;30.30;32.20;;;;;;110326;1254;49419;-65
2023/04/09 10:55:37;;;;;;;;;97.25;76.75;30.30;32.70;;;;;;110061;1250;51166;-63
2023/04/09 10:58:05;;;;;;;;;98.00;81.00;30.20;32.40;;;;;;110235;1250;46061;-65
2023/04/09 11:00:37;;;;;;;;;113.00;91.00;30.10;32.70;;;;;;110277;1254;55597;-66
2023/04/09 11:03:24;;;;;;;;;118.00;99.67;30.00;32.60;;;;;;110220;1250;54072;-66
2023/04/09 11:06:10;;;;;;;;;117.67;99.00;30.00;32.70;;;;;;110172;1254;50234;-67
2023/04/09 11:08:37;;;;;;;;;136.00;95.33;29.90;32.90;;;;;;110256;1250;50004;-65
2023/04/09 11:11:04;;;;;;;;;129.25;105.00;29.90;33.00;;;;;;110252;1254;45196;-65
2023/04/09 11:13:32;;;;;;;;;155.00;118.00;29.90;33.40;;;;;;110133;1251;55724;-63
2023/04/09 11:16:02;;;;;;;;;177.00;128.50;29.80;33.50;;;;;;110188;1250;53629;-63
2023/04/09 11:18:29;;;;;;;;;178.00;132.00;29.70;33.60;;;;;;110292;1254;50205;-62
2023/04/09 11:20:59;;;;;;;;;207.00;160.00;29.60;34.20;;;;;;110268;1250;50308;-66
2023/04/09 11:23:27;;;;;;;;;102.50;83.00;29.60;33.70;;;;;;110136;1253;46056;-66
2023/04/09 11:25:55;;;;;;;;;66.00;49.00;29.60;29.10;;;;;;110126;1254;55227;-67
2023/04/09 11:28:23;;;;;;;;;62.00;46.50;29.50;28.40;;;;;;110365;1254;53403;-67
2023/04/09 11:30:51;;;;;;;;;55.00;44.50;29.40;28.00;;;;;;110394;1250;49499;-66
2023/04/09 11:33:18;;;;;;;;;44.00;36.00;29.40;27.70;;;;;;110277;1254;49524;-65
2023/04/09 11:35:45;;;;;;;;;48.00;38.00;29.20;27.60;;;;;;110067;1254;46272;-67
2023/04/09 11:38:12;;;;;;;;;45.50;37.00;29.10;27.30;;;;;;109974;1254;55676;-66
2023/04/09 11:40:46;;;;;;;;;41.00;34.33;29.00;27.20;;;;;;110212;1250;54181;-66
2023/04/09 11:43:17;;;;;;;;;37.00;31.00;28.90;27.20;;;;;;110227;1250;49850;-67
2023/04/09 11:45:46;;;;;;;;;36.00;32.00;28.70;27.20;;;;;;110004;1250;49216;-66
2023/04/09 11:48:16;;;;;;;;;39.00;34.00;28.60;27.10;;;;;;110121;1251;46340;-62
2023/04/09 11:50:44;;;;;;;;;37.00;33.00;28.40;27.20;;;;;;110282;1250;56807;-65
2023/04/09 11:53:21;;;;;;;;;40.33;35.00;28.20;27.20;;;;;;110216;1254;54674;-64
2023/04/09 11:55:50;;;;;;;;;35.67;32.00;28.10;27.20;;;;;;110075;1250;49867;-65
2023/04/09 11:58:17;;;;;;;;;38.50;32.50;27.80;27.10;;;;;;110106;1251;48897;-68
2023/04/09 12:00:44;;;;;;;;;38.67;33.33;27.60;27.30;;;;;;110261;1250;45525;-67
2023/04/09 12:03:12;;;;;;;;;39.33;34.00;27.50;27.40;;;;;;110093;1254;55194;-65
2023/04/09 12:05:44;;;;;;;;;35.50;32.50;27.30;27.40;;;;;;109989;1254;55217;-66
2023/04/09 12:08:11;;;;;;;;;35.00;30.00;27.20;27.10;;;;;;110171;1251;49037;-64
2023/04/09 12:10:38;;;;;;;;;36.00;31.00;27.00;27.30;;;;;;110251;1254;49302;-66
2023/04/09 12:13:09;;;;;;;;;35.50;31.00;26.90;27.10;;;;;;110196;1250;45245;-65
2023/04/09 12:15:39;;;;;;;;;34.00;32.00;26.80;27.40;;;;;;110067;1250;56113;-66
2023/04/09 12:18:09;;;;;;;;;37.00;30.00;26.60;27.00;;;;;;110173;1254;54232;-65
2023/04/09 12:20:38;;;;;;;;;31.00;29.00;26.50;26.90;;;;;;110324;1251;49116;-65
2023/04/09 12:23:06;;;;;;;;;35.00;28.00;26.30;26.90;;;;;;110232;1254;50682;-65